Time;durP1;ratioP1;P1;durP2;ratioP2;P2;SDS_P1;SDS_P2;PMS_P1;PMS_P2;Temp;Humidity;BMP_temperature;BMP_pressure;BME280_temperature;BME280_humidity;BME280_pressure;Samples;Min_cycle;Max_cycle;Signal;HPM_P1;HPM_P2
2023/09/01 00:00:28;;;;;;;1.40;1.30;;;;;;;;;;5098028;28;20211;-62
2023/09/01 00:02:56;;;;;;;1.40;1.30;;;;;;;;;;5098076;28;20310;-62
2023/09/01 00:05:23;;;;;;;1.67;1.58;;;;;;;;;;5097804;28;20226;-62
2023/09/01 00:07:52;;;;;;;2.22;1.40;;;;;;;;;;5097768;28;20203;-62
2023/09/01 00:10:20;;;;;;;1.30;1.20;;;;;;;;;;5097950;28;20269;-62
2023/09/01 00:12:48;;;;;;;2.35;1.30;;;;;;;;;;5097507;28;20231;-62
2023/09/01 00:15:15;;;;;;;1.88;1.30;;;;;;;;;;5097370;28;20219;-62
2023/09/01 00:17:43;;;;;;;1.35;1.25;;;;;;;;;;5097922;28;20290;-62
2023/09/01 00:20:11;;;;;;;1.70;1.35;;;;;;;;;;5097936;28;20599;-62
2023/09/01 00:22:38;;;;;;;1.40;1.30;;;;;;;;;;5097395;28;20264;-63
2023/09/01 00:25:08;;;;;;;1.90;1.23;;;;;;;;;;5097772;28;20211;-62
2023/09/01 00:27:36;;;;;;;1.50;1.40;;;;;;;;;;5097917;28;20227;-62
2023/09/01 00:30:03;;;;;;;1.73;1.40;;;;;;;;;;5097390;28;20242;-62
2023/09/01 00:32:31;;;;;;;1.30;1.20;;;;;;;;;;5097852;28;20204;-62
2023/09/01 00:34:59;;;;;;;2.08;1.40;;;;;;;;;;5097163;28;20610;-62
2023/09/01 00:37:27;;;;;;;1.40;1.30;;;;;;;;;;5097827;28;20207;-62
2023/09/01 00:39:54;;;;;;;1.35;1.25;;;;;;;;;;5097568;28;20281;-62
2023/09/01 00:42:23;;;;;;;1.17;1.08;;;;;;;;;;5097572;28;20301;-62
2023/09/01 00:44:50;;;;;;;1.58;1.40;;;;;;;;;;5097299;28;20199;-62
2023/09/01 00:47:19;;;;;;;1.52;1.30;;;;;;;;;;5097550;28;20582;-62
2023/09/01 00:49:46;;;;;;;1.58;1.20;;;;;;;;;;5097359;28;20268;-62
2023/09/01 00:52:14;;;;;;;1.88;1.30;;;;;;;;;;5097394;28;20204;-62
2023/09/01 00:54:41;;;;;;;1.40;1.30;;;;;;;;;;5097407;28;20615;-62
2023/09/01 00:57:09;;;;;;;1.40;1.30;;;;;;;;;;5097500;28;20207;-62
2023/09/01 00:59:38;;;;;;;1.67;1.30;;;;;;;;;;5097340;28;20302;-62
2023/09/01 01:02:05;;;;;;;2.72;1.55;;;;;;;;;;5097302;28;20229;-62
2023/09/01 01:04:34;;;;;;;1.38;1.20;;;;;;;;;;5097311;28;20199;-62
2023/09/01 01:07:08;;;;;;;1.35;1.25;;;;;;;;;;5100434;28;20203;-63
2023/09/01 01:09:39;;;;;;;1.33;1.23;;;;;;;;;;5101230;28;20567;-62
2023/09/01 01:12:08;;;;;;;2.30;1.50;;;;;;;;;;5101559;28;20243;-62
2023/09/01 01:14:39;;;;;;;1.50;1.40;;;;;;;;;;5100987;28;20231;-62
2023/09/01 01:17:07;;;;;;;1.73;1.50;;;;;;;;;;5101008;28;20268;-62
2023/09/01 01:19:42;;;;;;;1.48;1.27;;;;;;;;;;5101322;28;20204;-62
2023/09/01 01:22:10;;;;;;;1.73;1.15;;;;;;;;;;5100970;28;20289;-62
2023/09/01 01:24:39;;;;;;;1.38;1.27;;;;;;;;;;5101074;28;20210;-62
2023/09/01 01:27:07;;;;;;;1.38;1.23;;;;;;;;;;5100873;28;20591;-62
2023/09/01 01:29:34;;;;;;;1.58;1.45;;;;;;;;;;5100970;28;20326;-62
2023/09/01 01:32:02;;;;;;;1.40;1.30;;;;;;;;;;5100589;28;20579;-62
2023/09/01 01:34:34;;;;;;;1.40;1.25;;;;;;;;;;5100742;28;20235;-62
2023/09/01 01:37:07;;;;;;;1.40;1.30;;;;;;;;;;5101118;28;20284;-62
2023/09/01 01:39:35;;;;;;;1.48;1.38;;;;;;;;;;5100855;28;20203;-62
2023/09/01 01:42:10;;;;;;;1.55;1.40;;;;;;;;;;5100977;28;20204;-62
2023/09/01 01:44:39;;;;;;;1.77;1.38;;;;;;;;;;5100512;28;20204;-63
2023/09/01 01:47:08;;;;;;;1.60;1.35;;;;;;;;;;5100453;28;20211;-62
2023/09/01 01:49:35;;;;;;;1.55;1.45;;;;;;;;;;5100287;28;20234;-62
2023/09/01 01:52:03;;;;;;;1.40;1.30;;;;;;;;;;5100604;28;20204;-62
2023/09/01 01:54:31;;;;;;;1.65;1.40;;;;;;;;;;5099383;28;20227;-62
2023/09/01 01:56:59;;;;;;;1.40;1.30;;;;;;;;;;5099998;28;20257;-62
2023/09/01 01:59:28;;;;;;;1.55;1.40;;;;;;;;;;5100259;28;20211;-62
2023/09/01 02:01:55;;;;;;;1.80;1.60;;;;;;;;;;5099895;28;20218;-62
2023/09/01 02:04:23;;;;;;;1.63;1.20;;;;;;;;;;5100540;28;20243;-62
2023/09/01 02:06:50;;;;;;;1.50;1.27;;;;;;;;;;5100329;28;20461;-62
2023/09/01 02:09:18;;;;;;;1.92;1.58;;;;;;;;;;5100445;28;20711;-62
2023/09/01 02:11:46;;;;;;;1.33;1.20;;;;;;;;;;5100046;28;20293;-62
2023/09/01 02:14:13;;;;;;;1.65;1.50;;;;;;;;;;5099772;28;20232;-62
2023/09/01 02:16:43;;;;;;;1.40;1.30;;;;;;;;;;5099863;28;20217;-62
2023/09/01 02:19:11;;;;;;;1.60;1.40;;;;;;;;;;5099288;28;20253;-62
2023/09/01 02:21:39;;;;;;;1.20;1.10;;;;;;;;;;5099696;28;20247;-62
2023/09/01 02:24:07;;;;;;;1.40;1.30;;;;;;;;;;5100040;28;20203;-62
2023/09/01 02:26:34;;;;;;;1.60;1.50;;;;;;;;;;5099855;28;20871;-62
2023/09/01 02:29:04;;;;;;;1.63;1.30;;;;;;;;;;5099970;28;20215;-62
2023/09/01 02:31:32;;;;;;;1.50;1.40;;;;;;;;;;5099436;28;20215;-62
2023/09/01 02:34:04;;;;;;;1.40;1.10;;;;;;;;;;5099427;28;20204;-62
2023/09/01 02:36:32;;;;;;;1.30;1.20;;;;;;;;;;5099633;28;20203;-62
2023/09/01 02:39:00;;;;;;;1.17;1.08;;;;;;;;;;5099156;28;20203;-62
2023/09/01 02:41:28;;;;;;;1.40;1.30;;;;;;;;;;5098982;28;20740;-62
2023/09/01 02:43:55;;;;;;;1.55;1.40;;;;;;;;;;5099391;28;20204;-62
2023/09/01 02:46:23;;;;;;;2.70;1.60;;;;;;;;;;5099458;28;20207;-62
2023/09/01 02:48:51;;;;;;;1.40;1.30;;;;;;;;;;5098902;28;20211;-62
2023/09/01 02:51:20;;;;;;;1.45;1.35;;;;;;;;;;5098779;28;20203;-62
2023/09/01 02:53:48;;;;;;;1.48;1.35;;;;;;;;;;5099354;28;20307;-63
2023/09/01 02:56:17;;;;;;;1.83;1.27;;;;;;;;;;5099122;28;20499;-62
2023/09/01 02:58:44;;;;;;;1.35;1.25;;;;;;;;;;5098406;28;20646;-62
2023/09/01 03:01:13;;;;;;;1.98;1.20;;;;;;;;;;5098728;28;20204;-62
2023/09/01 03:03:41;;;;;;;1.42;1.33;;;;;;;;;;5098708;28;20298;-62
2023/09/01 03:06:09;;;;;;;1.50;1.40;;;;;;;;;;5098998;28;20200;-62
2023/09/01 03:08:38;;;;;;;1.40;1.30;;;;;;;;;;5098389;28;20303;-63
2023/09/01 03:11:06;;;;;;;1.52;1.42;;;;;;;;;;5099186;28;20307;-62
2023/09/01 03:13:33;;;;;;;1.42;1.33;;;;;;;;;;5098694;28;20223;-62
2023/09/01 03:16:01;;;;;;;1.63;1.15;;;;;;;;;;5098471;28;20276;-62
2023/09/01 03:18:29;;;;;;;1.45;1.25;;;;;;;;;;5098028;28;20257;-62
2023/09/01 03:20:56;;;;;;;2.17;1.20;;;;;;;;;;5098408;28;20268;-62
2023/09/01 03:23:24;;;;;;;2.42;1.30;;;;;;;;;;5098446;28;20203;-62
2023/09/01 03:25:56;;;;;;;1.77;1.38;;;;;;;;;;5098184;28;20210;-62
2023/09/01 03:28:24;;;;;;;1.40;1.30;;;;;;;;;;5098354;28;20252;-62
2023/09/01 03:30:52;;;;;;;1.30;1.20;;;;;;;;;;5098682;28;20482;-62
2023/09/01 03:33:20;;;;;;;1.70;1.30;;;;;;;;;;5098269;28;20678;-62
2023/09/01 03:35:49;;;;;;;1.35;1.25;;;;;;;;;;5097960;28;20227;-62
2023/09/01 03:38:16;;;;;;;1.73;1.40;;;;;;;;;;5098042;28;20199;-62
2023/09/01 03:40:44;;;;;;;1.83;1.30;;;;;;;;;;5098344;28;20203;-62
2023/09/01 03:43:13;;;;;;;1.40;1.17;;;;;;;;;;5098132;28;20456;-63
2023/09/01 03:45:44;;;;;;;1.35;1.25;;;;;;;;;;5097650;28;20200;-63
2023/09/01 03:48:12;;;;;;;1.30;1.20;;;;;;;;;;5098068;28;20203;-63
2023/09/01 03:50:38;;;;;;;1.50;1.40;;;;;;;;;;5097563;28;20294;-63
2023/09/01 03:53:06;;;;;;;1.50;1.40;;;;;;;;;;5097971;28;20462;-62
2023/09/01 03:55:33;;;;;;;1.40;1.27;;;;;;;;;;5096871;28;20318;-62
2023/09/01 03:58:01;;;;;;;1.38;1.20;;;;;;;;;;5097535;28;20277;-62
2023/09/01 04:00:30;;;;;;;1.85;1.20;;;;;;;;;;5097483;28;20208;-62
2023/09/01 04:02:57;;;;;;;1.40;1.30;;;;;;;;;;5097573;28;20258;-62
2023/09/01 04:05:27;;;;;;;1.30;1.20;;;;;;;;;;5097196;28;20200;-63
2023/09/01 04:07:54;;;;;;;1.60;1.48;;;;;;;;;;5096874;28;20231;-62
2023/09/01 04:10:22;;;;;;;1.52;1.42;;;;;;;;;;5097519;28;20214;-62
2023/09/01 04:12:50;;;;;;;1.23;1.13;;;;;;;;;;5097107;28;20296;-62
2023/09/01 04:15:17;;;;;;;1.58;1.30;;;;;;;;;;5097217;28;20219;-62
2023/09/01 04:17:46;;;;;;;1.60;1.50;;;;;;;;;;5097204;28;20203;-62
2023/09/01 04:20:13;;;;;;;1.85;1.20;;;;;;;;;;5096886;28;20207;-63
2023/09/01 04:22:41;;;;;;;1.33;1.23;;;;;;;;;;5096909;28;20211;-62
2023/09/01 04:25:09;;;;;;;1.13;1.05;;;;;;;;;;5096437;28;20200;-62
2023/09/01 04:27:36;;;;;;;1.42;1.30;;;;;;;;;;5096833;28;20214;-62
2023/09/01 04:30:04;;;;;;;1.80;1.45;;;;;;;;;;5096512;28;20467;-62
2023/09/01 04:32:31;;;;;;;2.03;1.58;;;;;;;;;;5096229;28;20203;-62
2023/09/01 04:35:00;;;;;;;1.60;1.40;;;;;;;;;;5096295;28;20227;-62
2023/09/01 04:37:28;;;;;;;1.40;1.30;;;;;;;;;;5096293;28;20234;-62
2023/09/01 04:39:55;;;;;;;1.85;1.58;;;;;;;;;;5095860;28;20230;-63
2023/09/01 04:42:22;;;;;;;1.50;1.40;;;;;;;;;;5095830;28;20211;-62
2023/09/01 04:44:49;;;;;;;1.30;1.10;;;;;;;;;;5096151;28;20211;-62
2023/09/01 04:47:17;;;;;;;1.40;1.30;;;;;;;;;;5095543;28;20363;-62
2023/09/01 04:49:44;;;;;;;1.85;1.40;;;;;;;;;;5095564;28;20215;-62
2023/09/01 04:52:13;;;;;;;1.38;1.27;;;;;;;;;;5095764;28;20210;-62
2023/09/01 04:54:41;;;;;;;1.40;1.30;;;;;;;;;;5095695;28;20203;-62
2023/09/01 04:57:08;;;;;;;1.75;1.58;;;;;;;;;;5094678;28;20215;-62
2023/09/01 04:59:35;;;;;;;1.75;1.60;;;;;;;;;;5095062;28;20219;-62
2023/09/01 05:02:03;;;;;;;1.40;1.30;;;;;;;;;;5094030;28;20203;-62
2023/09/01 05:04:32;;;;;;;1.40;1.30;;;;;;;;;;5094460;28;20304;-62
2023/09/01 05:07:00;;;;;;;1.40;1.30;;;;;;;;;;5094789;28;20594;-62
2023/09/01 05:09:29;;;;;;;1.80;1.40;;;;;;;;;;5094812;28;20306;-62
2023/09/01 05:11:56;;;;;;;1.42;1.30;;;;;;;;;;5099676;28;20230;-62
2023/09/01 05:14:24;;;;;;;1.60;1.50;;;;;;;;;;5113050;28;20194;-63
2023/09/01 05:16:51;;;;;;;1.60;1.50;;;;;;;;;;5114124;28;20636;-63
2023/09/01 05:19:19;;;;;;;1.30;1.20;;;;;;;;;;5114644;28;20206;-62
2023/09/01 05:21:46;;;;;;;1.50;1.40;;;;;;;;;;5114937;28;20203;-62
2023/09/01 05:24:13;;;;;;;1.50;1.40;;;;;;;;;;5114694;28;20203;-62
2023/09/01 05:26:42;;;;;;;1.50;1.20;;;;;;;;;;5114533;28;20198;-62
2023/09/01 05:29:09;;;;;;;2.13;1.65;;;;;;;;;;5114067;28;20202;-62
2023/09/01 05:31:37;;;;;;;1.60;1.50;;;;;;;;;;5114815;28;20214;-62
2023/09/01 05:34:05;;;;;;;1.67;1.50;;;;;;;;;;5113864;28;20302;-62
2023/09/01 05:36:32;;;;;;;1.67;1.58;;;;;;;;;;5114892;28;20287;-62
2023/09/01 05:38:59;;;;;;;1.48;1.30;;;;;;;;;;5114386;28;20523;-63
2023/09/01 05:41:27;;;;;;;1.40;1.30;;;;;;;;;;5113624;28;20202;-63
2023/09/01 05:43:55;;;;;;;1.60;1.45;;;;;;;;;;5113161;28;20710;-62
2023/09/01 05:46:23;;;;;;;2.28;1.83;;;;;;;;;;5113304;28;20198;-62
2023/09/01 05:48:50;;;;;;;1.77;1.52;;;;;;;;;;5113272;28;20506;-63
2023/09/01 05:51:18;;;;;;;1.88;1.60;;;;;;;;;;5113550;28;20631;-63
2023/09/01 05:53:45;;;;;;;1.60;1.50;;;;;;;;;;5115778;28;20214;-62
2023/09/01 05:56:12;;;;;;;1.70;1.50;;;;;;;;;;5118070;28;20529;-62
2023/09/01 05:58:40;;;;;;;1.95;1.80;;;;;;;;;;5117291;28;20199;-62
2023/09/01 06:01:09;;;;;;;2.10;1.90;;;;;;;;;;5117908;28;20713;-62
2023/09/01 06:03:36;;;;;;;2.20;1.90;;;;;;;;;;5117812;28;20199;-62
2023/09/01 06:06:03;;;;;;;2.20;1.70;;;;;;;;;;5118153;28;20202;-62
2023/09/01 06:08:31;;;;;;;2.63;1.80;;;;;;;;;;5116990;28;20215;-62
2023/09/01 06:11:04;;;;;;;2.17;1.85;;;;;;;;;;5117748;28;20487;-63
2023/09/01 06:13:32;;;;;;;1.80;1.65;;;;;;;;;;5117740;28;20234;-62
2023/09/01 06:16:00;;;;;;;2.13;1.92;;;;;;;;;;5118305;28;20226;-62
2023/09/01 06:18:28;;;;;;;2.17;1.90;;;;;;;;;;5118452;28;20203;-63
2023/09/01 06:20:56;;;;;;;2.10;1.90;;;;;;;;;;5118582;28;20209;-62
2023/09/01 06:23:23;;;;;;;2.03;1.83;;;;;;;;;;5118067;28;20203;-62
2023/09/01 06:25:50;;;;;;;2.88;2.10;;;;;;;;;;5116780;28;20203;-62
2023/09/01 06:28:18;;;;;;;2.30;2.10;;;;;;;;;;5118043;28;20575;-62
2023/09/01 06:30:45;;;;;;;2.40;2.20;;;;;;;;;;5117689;28;20195;-62
2023/09/01 06:33:13;;;;;;;2.50;2.05;;;;;;;;;;5118551;28;20472;-62
2023/09/01 06:35:42;;;;;;;4.13;2.30;;;;;;;;;;5117893;28;20241;-62
2023/09/01 06:38:09;;;;;;;2.50;2.00;;;;;;;;;;5118245;28;20309;-62
2023/09/01 06:40:37;;;;;;;2.10;1.77;;;;;;;;;;5118125;28;20202;-62
2023/09/01 06:43:04;;;;;;;2.20;2.00;;;;;;;;;;5118091;28;20203;-62
2023/09/01 06:45:32;;;;;;;2.97;2.17;;;;;;;;;;5118287;28;20208;-62
2023/09/01 06:48:00;;;;;;;2.38;2.13;;;;;;;;;;5117381;28;20283;-62
2023/09/01 06:50:27;;;;;;;2.47;2.03;;;;;;;;;;5117180;28;20207;-62
2023/09/01 06:52:56;;;;;;;2.60;2.40;;;;;;;;;;5117391;28;20211;-62
2023/09/01 06:55:23;;;;;;;3.17;2.40;;;;;;;;;;5117823;28;20199;-62
2023/09/01 06:57:51;;;;;;;2.35;2.03;;;;;;;;;;5117073;28;20598;-62
2023/09/01 07:00:18;;;;;;;2.75;2.10;;;;;;;;;;5117444;28;20647;-62
2023/09/01 07:02:46;;;;;;;3.22;2.25;;;;;;;;;;5117780;28;20493;-62
2023/09/01 07:05:15;;;;;;;2.20;2.00;;;;;;;;;;5116628;28;20195;-62
2023/09/01 07:07:42;;;;;;;2.40;2.15;;;;;;;;;;5117243;28;20275;-62
2023/09/01 07:10:11;;;;;;;3.75;2.10;;;;;;;;;;5116606;28;20199;-62
2023/09/01 07:12:38;;;;;;;2.53;2.10;;;;;;;;;;5116903;28;20231;-62
2023/09/01 07:15:06;;;;;;;2.97;2.13;;;;;;;;;;5117222;28;20225;-62
2023/09/01 07:17:33;;;;;;;3.33;2.25;;;;;;;;;;5117219;28;20673;-62
2023/09/01 07:20:01;;;;;;;2.25;2.05;;;;;;;;;;5118020;28;20207;-62
2023/09/01 07:22:28;;;;;;;2.35;2.05;;;;;;;;;;5118408;28;20489;-62
2023/09/01 07:24:56;;;;;;;2.38;2.17;;;;;;;;;;5117577;28;20203;-62
2023/09/01 07:27:25;;;;;;;3.72;2.00;;;;;;;;;;5116388;28;20214;-62
2023/09/01 07:29:52;;;;;;;2.30;1.77;;;;;;;;;;5116944;28;20249;-62
2023/09/01 07:32:20;;;;;;;2.33;1.95;;;;;;;;;;5116837;28;20269;-62
2023/09/01 07:34:48;;;;;;;2.92;2.08;;;;;;;;;;5116187;28;20293;-62
2023/09/01 07:37:15;;;;;;;3.58;1.95;;;;;;;;;;5116769;28;20549;-62
2023/09/01 07:39:43;;;;;;;4.43;2.20;;;;;;;;;;5116506;28;20194;-62
2023/09/01 07:42:10;;;;;;;4.40;1.85;;;;;;;;;;5116363;28;20199;-62
2023/09/01 07:44:39;;;;;;;6.35;2.30;;;;;;;;;;5116208;28;20210;-62
2023/09/01 07:47:06;;;;;;;4.47;2.08;;;;;;;;;;5116183;28;20777;-62
2023/09/01 07:49:33;;;;;;;4.35;2.13;;;;;;;;;;5116001;28;20199;-62
2023/09/01 07:52:02;;;;;;;3.92;2.40;;;;;;;;;;5116502;28;20195;-62
2023/09/01 07:54:30;;;;;;;2.92;2.30;;;;;;;;;;5115554;28;20203;-62
2023/09/01 07:56:57;;;;;;;4.07;2.10;;;;;;;;;;5115566;28;20621;-62
2023/09/01 07:59:25;;;;;;;5.68;2.15;;;;;;;;;;5115704;28;20203;-62
2023/09/01 08:01:53;;;;;;;2.95;1.95;;;;;;;;;;5115789;28;20199;-62
2023/09/01 08:04:21;;;;;;;3.00;2.03;;;;;;;;;;5115952;28;20203;-62
2023/09/01 08:06:48;;;;;;;4.55;2.05;;;;;;;;;;5116262;28;20222;-62
2023/09/01 08:09:16;;;;;;;3.45;2.10;;;;;;;;;;5116252;28;20206;-62
2023/09/01 08:11:43;;;;;;;2.80;2.00;;;;;;;;;;5115611;28;20239;-62
2023/09/01 08:14:10;;;;;;;3.80;2.17;;;;;;;;;;5115821;28;20195;-62
2023/09/01 08:16:38;;;;;;;2.78;2.30;;;;;;;;;;5115263;28;20223;-62
2023/09/01 08:19:07;;;;;;;3.30;1.90;;;;;;;;;;5115764;28;20715;-62
2023/09/01 08:21:34;;;;;;;2.80;1.85;;;;;;;;;;5115878;28;20674;-62
2023/09/01 08:24:02;;;;;;;3.17;1.85;;;;;;;;;;5116338;28;20521;-62
2023/09/01 08:26:30;;;;;;;2.90;1.98;;;;;;;;;;5114999;28;20206;-63
2023/09/01 08:28:57;;;;;;;2.83;2.10;;;;;;;;;;5115221;28;20682;-62
2023/09/01 08:31:25;;;;;;;2.17;1.80;;;;;;;;;;5116091;28;20203;-62
2023/09/01 08:33:54;;;;;;;3.63;1.92;;;;;;;;;;5114637;28;20266;-62
2023/09/01 08:36:22;;;;;;;2.80;1.85;;;;;;;;;;5115921;28;20227;-62
2023/09/01 08:38:50;;;;;;;3.38;1.58;;;;;;;;;;5114773;28;20209;-62
2023/09/01 08:41:17;;;;;;;2.10;1.52;;;;;;;;;;5114918;28;20210;-62
2023/09/01 08:43:45;;;;;;;2.28;1.77;;;;;;;;;;5115519;28;20202;-62
2023/09/01 08:46:15;;;;;;;2.22;1.60;;;;;;;;;;5115650;28;20195;-62
2023/09/01 08:48:43;;;;;;;2.35;1.70;;;;;;;;;;5115528;28;20203;-62
2023/09/01 08:51:14;;;;;;;1.50;1.40;;;;;;;;;;5115158;28;20207;-62
2023/09/01 08:53:43;;;;;;;2.17;1.63;;;;;;;;;;5115164;28;20669;-62
2023/09/01 08:56:11;;;;;;;1.65;1.50;;;;;;;;;;5114834;28;20203;-62
2023/09/01 08:58:40;;;;;;;2.10;1.67;;;;;;;;;;5115169;28;20578;-63
2023/09/01 09:01:07;;;;;;;2.05;1.80;;;;;;;;;;5114928;28;20202;-62
2023/09/01 09:03:35;;;;;;;1.50;1.38;;;;;;;;;;5114895;28;20205;-62
2023/09/01 09:06:03;;;;;;;2.08;1.38;;;;;;;;;;5115732;28;20505;-62
2023/09/01 09:08:30;;;;;;;1.85;1.45;;;;;;;;;;5114982;28;20234;-62
2023/09/01 09:10:59;;;;;;;1.63;1.52;;;;;;;;;;5114681;28;20203;-62
2023/09/01 09:13:28;;;;;;;1.88;1.50;;;;;;;;;;5115175;28;20842;-62
2023/09/01 09:16:11;;;;;;;2.40;1.45;;;;;;;;;;5115309;28;20305;-62
2023/09/01 09:18:40;;;;;;;1.58;1.33;;;;;;;;;;5115574;28;20213;-62
2023/09/01 09:21:22;;;;;;;2.10;1.50;;;;;;;;;;5115123;28;20307;-62
2023/09/01 09:23:49;;;;;;;2.15;1.40;;;;;;;;;;5114552;28;20240;-62
2023/09/01 09:26:25;;;;;;;1.92;1.35;;;;;;;;;;5114946;28;20467;-62
2023/09/01 09:28:52;;;;;;;2.17;1.63;;;;;;;;;;5119116;28;20203;-62
2023/09/01 09:31:20;;;;;;;1.35;1.25;;;;;;;;;;5117944;28;20224;-62
2023/09/01 09:33:47;;;;;;;1.50;1.38;;;;;;;;;;5118593;28;20199;-62
2023/09/01 09:36:15;;;;;;;1.42;1.17;;;;;;;;;;5118454;28;20214;-62
2023/09/01 09:38:43;;;;;;;1.83;1.50;;;;;;;;;;5118970;28;20313;-62
2023/09/01 09:41:11;;;;;;;1.52;1.40;;;;;;;;;;5118158;28;20199;-62
2023/09/01 09:43:46;;;;;;;1.40;1.20;;;;;;;;;;5117825;28;20195;-62
2023/09/01 09:46:14;;;;;;;1.58;1.17;;;;;;;;;;5118358;28;20213;-62
2023/09/01 09:48:41;;;;;;;1.45;1.17;;;;;;;;;;5117726;28;20203;-62
2023/09/01 09:51:10;;;;;;;1.92;1.40;;;;;;;;;;5117688;28;20202;-62
2023/09/01 09:53:38;;;;;;;1.30;1.20;;;;;;;;;;5118190;28;20316;-62
2023/09/01 09:56:20;;;;;;;1.83;1.20;;;;;;;;;;5117715;28;20214;-62
2023/09/01 09:58:51;;;;;;;1.30;1.13;;;;;;;;;;5118296;28;20280;-62
2023/09/01 10:01:20;;;;;;;1.25;1.15;;;;;;;;;;5117668;28;20293;-63
2023/09/01 10:03:48;;;;;;;1.52;1.15;;;;;;;;;;5117016;28;20467;-62
2023/09/01 10:06:17;;;;;;;1.30;1.10;;;;;;;;;;5116924;28;20202;-62
2023/09/01 10:08:45;;;;;;;1.17;1.08;;;;;;;;;;5117368;28;20207;-62
2023/09/01 10:11:15;;;;;;;1.13;1.00;;;;;;;;;;5115971;28;20206;-62
2023/09/01 10:13:45;;;;;;;1.17;1.00;;;;;;;;;;5116372;28;20252;-62
2023/09/01 10:16:14;;;;;;;1.35;1.25;;;;;;;;;;5116777;28;20276;-63
2023/09/01 10:18:44;;;;;;;1.00;1.00;;;;;;;;;;5116399;28;20272;-62
2023/09/01 10:21:13;;;;;;;1.38;1.20;;;;;;;;;;5115486;28;20203;-62
2023/09/01 10:23:42;;;;;;;1.13;0.90;;;;;;;;;;5115926;28;20206;-62
2023/09/01 10:26:24;;;;;;;1.05;0.90;;;;;;;;;;5116698;28;20234;-63
2023/09/01 10:28:57;;;;;;;1.30;1.20;;;;;;;;;;5116866;28;20207;-62
2023/09/01 10:31:26;;;;;;;1.48;1.20;;;;;;;;;;5115478;28;20202;-62
2023/09/01 10:34:07;;;;;;;2.00;1.17;;;;;;;;;;5116105;28;20518;-62
2023/09/01 10:36:35;;;;;;;2.15;0.88;;;;;;;;;;5115650;28;20302;-62
2023/09/01 10:39:22;;;;;;;1.25;1.00;;;;;;;;;;5116402;28;20210;-62
2023/09/01 10:41:54;;;;;;;1.73;1.08;;;;;;;;;;5117820;28;20202;-62
2023/09/01 10:44:22;;;;;;;1.98;0.90;;;;;;;;;;5116160;28;20264;-62
2023/09/01 10:46:51;;;;;;;1.48;1.00;;;;;;;;;;5116573;28;20203;-62
2023/09/01 10:49:19;;;;;;;1.15;0.77;;;;;;;;;;5116012;28;20203;-62
2023/09/01 10:51:47;;;;;;;1.75;1.10;;;;;;;;;;5116206;28;20195;-62
2023/09/01 10:54:44;;;;;;;1.67;1.23;;;;;;;;;;5117010;28;20199;-62
2023/09/01 10:57:15;;;;;;;6.82;1.58;;;;;;;;;;5013887;28;20230;-62
2023/09/01 10:59:43;;;;;;;1.75;1.10;;;;;;;;;;5095655;28;20207;-62
2023/09/01 11:02:22;;;;;;;1.90;1.00;;;;;;;;;;5116315;28;20574;-62
2023/09/01 11:04:49;;;;;;;3.10;1.10;;;;;;;;;;5116714;28;20248;-62
2023/09/01 11:07:17;;;;;;;3.05;1.20;;;;;;;;;;5116119;28;20191;-62
2023/09/01 11:10:02;;;;;;;2.05;1.08;;;;;;;;;;5116040;28;20264;-62
2023/09/01 11:12:32;;;;;;;2.38;1.20;;;;;;;;;;5102556;28;20303;-62
2023/09/01 11:15:05;;;;;;;3.72;1.25;;;;;;;;;;5095146;28;20210;-62
2023/09/01 11:17:40;;;;;;;2.60;0.73;;;;;;;;;;5095449;28;20227;-63
2023/09/01 11:20:09;;;;;;;1.60;1.10;;;;;;;;;;5096662;28;20213;-62
2023/09/01 11:22:38;;;;;;;1.83;1.00;;;;;;;;;;5095527;28;20600;-62
2023/09/01 11:25:08;;;;;;;2.33;1.10;;;;;;;;;;5095413;28;20203;-62
2023/09/01 11:27:36;;;;;;;4.22;1.00;;;;;;;;;;5095227;28;20622;-62
2023/09/01 11:30:04;;;;;;;3.33;1.00;;;;;;;;;;5096060;28;20200;-62
2023/09/01 11:32:32;;;;;;;2.65;1.10;;;;;;;;;;5094489;28;20230;-62
2023/09/01 11:35:03;;;;;;;1.45;1.13;;;;;;;;;;5094845;28;20203;-62
2023/09/01 11:37:37;;;;;;;3.58;1.10;;;;;;;;;;5095076;28;20234;-62
2023/09/01 11:40:07;;;;;;;2.33;1.00;;;;;;;;;;5094963;28;20211;-63
2023/09/01 11:42:35;;;;;;;2.60;0.90;;;;;;;;;;5094957;28;20218;-62
2023/09/01 11:45:04;;;;;;;3.38;1.08;;;;;;;;;;5095380;28;20204;-62
2023/09/01 11:47:32;;;;;;;4.68;1.50;;;;;;;;;;5094638;28;20593;-62
2023/09/01 11:50:00;;;;;;;4.35;1.20;;;;;;;;;;5095284;28;20196;-62
2023/09/01 11:52:28;;;;;;;3.95;1.05;;;;;;;;;;5095209;28;20567;-62
2023/09/01 11:54:55;;;;;;;4.43;1.50;;;;;;;;;;5095388;28;20204;-62
2023/09/01 11:57:23;;;;;;;2.33;1.13;;;;;;;;;;5095102;28;20227;-62
2023/09/01 11:59:51;;;;;;;2.95;1.05;;;;;;;;;;5094753;28;20515;-62
2023/09/01 12:02:19;;;;;;;3.17;0.98;;;;;;;;;;5094630;28;20211;-62
2023/09/01 12:04:47;;;;;;;2.53;1.00;;;;;;;;;;5094618;28;20646;-62
2023/09/01 12:07:26;;;;;;;3.75;1.10;;;;;;;;;;5094897;28;20203;-63
2023/09/01 12:09:54;;;;;;;3.05;1.33;;;;;;;;;;5094935;28;20207;-63
2023/09/01 12:12:22;;;;;;;2.83;1.02;;;;;;;;;;5104919;28;20243;-63
2023/09/01 12:14:49;;;;;;;5.50;1.52;;;;;;;;;;5115464;28;20195;-63
2023/09/01 12:17:17;;;;;;;4.60;1.15;;;;;;;;;;5114900;28;20223;-62
2023/09/01 12:19:48;;;;;;;4.20;1.20;;;;;;;;;;5114765;28;20210;-62
2023/09/01 12:22:15;;;;;;;3.83;1.45;;;;;;;;;;5114157;28;20687;-62
2023/09/01 12:24:54;;;;;;;3.63;1.10;;;;;;;;;;5114987;28;20214;-62
2023/09/01 12:27:22;;;;;;;4.50;1.20;;;;;;;;;;5114357;28;20198;-62
2023/09/01 12:29:49;;;;;;;4.55;1.30;;;;;;;;;;5114386;28;20209;-62
2023/09/01 12:32:19;;;;;;;2.70;1.30;;;;;;;;;;5114124;28;20214;-62
2023/09/01 12:34:46;;;;;;;5.65;1.10;;;;;;;;;;5113880;28;20299;-62
2023/09/01 12:37:14;;;;;;;3.63;1.02;;;;;;;;;;5114637;28;20260;-62
2023/09/01 12:39:41;;;;;;;3.42;0.98;;;;;;;;;;5114134;28;20206;-62
2023/09/01 12:42:10;;;;;;;2.28;0.93;;;;;;;;;;5114832;28;20207;-62
2023/09/01 12:44:37;;;;;;;5.43;1.20;;;;;;;;;;5113589;28;20213;-62
2023/09/01 12:47:07;;;;;;;3.38;1.00;;;;;;;;;;5114814;28;20222;-62
2023/09/01 12:49:34;;;;;;;3.40;1.10;;;;;;;;;;5113957;28;20203;-62
2023/09/01 12:52:02;;;;;;;3.63;1.05;;;;;;;;;;5114786;28;20202;-62
2023/09/01 12:54:29;;;;;;;1.80;1.20;;;;;;;;;;5113630;28;20225;-63
2023/09/01 12:56:57;;;;;;;1.40;1.20;;;;;;;;;;5114543;28;20198;-62
2023/09/01 12:59:25;;;;;;;3.25;1.20;;;;;;;;;;5114256;28;20226;-62
2023/09/01 13:01:53;;;;;;;1.25;0.93;;;;;;;;;;5115859;28;20239;-62
2023/09/01 13:04:21;;;;;;;5.53;1.70;;;;;;;;;;5117759;28;20203;-62
2023/09/01 13:06:49;;;;;;;3.60;1.08;;;;;;;;;;5118729;28;20203;-62
2023/09/01 13:09:16;;;;;;;1.77;1.05;;;;;;;;;;5118235;28;20199;-62
2023/09/01 13:11:44;;;;;;;1.83;1.20;;;;;;;;;;5117486;28;20230;-62
2023/09/01 13:14:11;;;;;;;1.70;0.88;;;;;;;;;;5118742;28;20203;-62
2023/09/01 13:16:40;;;;;;;1.90;0.93;;;;;;;;;;5118300;28;20225;-62
2023/09/01 13:19:08;;;;;;;2.42;0.98;;;;;;;;;;5117981;28;20223;-62
2023/09/01 13:21:35;;;;;;;3.50;0.93;;;;;;;;;;5118125;28;20195;-62
2023/09/01 13:24:02;;;;;;;1.95;0.90;;;;;;;;;;5118330;28;20516;-62
2023/09/01 13:26:30;;;;;;;2.47;1.02;;;;;;;;;;5118617;28;20210;-62
2023/09/01 13:28:58;;;;;;;1.60;0.80;;;;;;;;;;5118334;28;20191;-62
2023/09/01 13:31:26;;;;;;;3.35;0.90;;;;;;;;;;5117736;28;20509;-62
2023/09/01 13:33:54;;;;;;;1.70;0.90;;;;;;;;;;5118240;28;20206;-62
2023/09/01 13:36:22;;;;;;;1.42;1.00;;;;;;;;;;5117735;28;20686;-62
2023/09/01 13:38:50;;;;;;;2.78;1.00;;;;;;;;;;5117102;28;20229;-63
2023/09/01 13:41:18;;;;;;;2.03;0.85;;;;;;;;;;5118649;28;20256;-62
2023/09/01 13:43:46;;;;;;;2.28;0.90;;;;;;;;;;5117847;28;20214;-62
2023/09/01 13:46:20;;;;;;;0.80;0.70;;;;;;;;;;5117569;28;20205;-62
2023/09/01 13:48:47;;;;;;;1.35;0.80;;;;;;;;;;5118513;28;20205;-62
2023/09/01 13:51:16;;;;;;;1.98;0.93;;;;;;;;;;5118154;28;20217;-62
2023/09/01 13:53:43;;;;;;;1.80;0.88;;;;;;;;;;5118580;28;20202;-62
2023/09/01 13:56:11;;;;;;;1.23;0.70;;;;;;;;;;5117552;28;20198;-62
2023/09/01 13:58:38;;;;;;;1.15;0.73;;;;;;;;;;5118190;28;20321;-62
2023/09/01 14:01:06;;;;;;;1.63;0.80;;;;;;;;;;5117865;28;20203;-62
2023/09/01 14:03:33;;;;;;;1.20;0.70;;;;;;;;;;5117455;28;20195;-62
2023/09/01 14:06:00;;;;;;;1.02;0.77;;;;;;;;;;5117289;28;20202;-62
2023/09/01 14:08:30;;;;;;;1.75;0.80;;;;;;;;;;5116663;28;20620;-62
2023/09/01 14:10:58;;;;;;;1.83;0.80;;;;;;;;;;5117330;28;20202;-62
2023/09/01 14:13:26;;;;;;;0.52;0.52;;;;;;;;;;5115916;28;20496;-62
2023/09/01 14:15:55;;;;;;;0.70;0.70;;;;;;;;;;5117010;28;20206;-62
2023/09/01 14:18:24;;;;;;;0.75;0.60;;;;;;;;;;5116930;28;20266;-62
2023/09/01 14:20:52;;;;;;;0.65;0.60;;;;;;;;;;5118033;28;20233;-62
2023/09/01 14:23:21;;;;;;;1.17;0.90;;;;;;;;;;5116841;28;20211;-62
2023/09/01 14:25:50;;;;;;;2.08;0.68;;;;;;;;;;5116863;28;20202;-62
2023/09/01 14:28:17;;;;;;;0.80;0.52;;;;;;;;;;5118199;28;20199;-62
2023/09/01 14:30:45;;;;;;;0.80;0.70;;;;;;;;;;5116496;28;20205;-62
2023/09/01 14:33:12;;;;;;;3.05;1.00;;;;;;;;;;5116371;28;20214;-62
2023/09/01 14:35:40;;;;;;;0.80;0.73;;;;;;;;;;5117102;28;20202;-63
2023/09/01 14:38:08;;;;;;;1.50;0.68;;;;;;;;;;5117902;28;20223;-63
2023/09/01 14:40:39;;;;;;;1.45;0.60;;;;;;;;;;5117616;28;20203;-62
2023/09/01 14:43:07;;;;;;;0.70;0.70;;;;;;;;;;5116776;28;20203;-62
2023/09/01 14:45:35;;;;;;;1.17;0.60;;;;;;;;;;5116205;28;20207;-62
2023/09/01 14:48:03;;;;;;;1.33;0.68;;;;;;;;;;5117501;28;20199;-62
2023/09/01 14:50:30;;;;;;;0.75;0.70;;;;;;;;;;5117071;28;20210;-62